createdAt,value
2023-05-19T00:01:17.913Z,10.00
2023-05-19T00:03:57.883Z,10.00
2023-05-19T00:06:31.997Z,9.80
2023-05-19T00:09:01.027Z,9.80
2023-05-19T00:11:29.003Z,9.90
2023-05-19T00:13:57.906Z,9.90
2023-05-19T00:16:26.878Z,9.90
2023-05-19T00:18:54.425Z,9.90
2023-05-19T00:21:21.573Z,9.90
2023-05-19T00:23:48.716Z,9.80
2023-05-19T00:26:15.828Z,9.80
2023-05-19T00:28:42.996Z,9.80
2023-05-19T00:31:10.031Z,9.80
2023-05-19T00:33:37.248Z,9.70
2023-05-19T00:36:04.529Z,9.70
2023-05-19T00:38:35.745Z,9.60
2023-05-19T00:41:03.936Z,9.60
2023-05-19T00:43:31.333Z,9.60
2023-05-19T00:45:58.455Z,9.50
2023-05-19T00:48:25.723Z,9.50
2023-05-19T00:50:55.025Z,9.50
2023-05-19T00:53:22.074Z,9.60
2023-05-19T00:55:49.924Z,9.60
2023-05-19T00:58:17.422Z,9.60
2023-05-19T01:00:44.511Z,9.60
2023-05-19T01:03:12.114Z,9.50
2023-05-19T01:05:44.939Z,9.50
2023-05-19T01:08:12.194Z,9.50
2023-05-19T01:10:39.247Z,9.50
2023-05-19T01:13:06.475Z,9.40
2023-05-19T01:15:36.170Z,9.30
2023-05-19T01:18:11.814Z,9.40
2023-05-19T01:20:46.529Z,9.40
2023-05-19T01:23:37.069Z,9.20
2023-05-19T01:26:14.818Z,9.20
2023-05-19T01:29:00.182Z,9.30
2023-05-19T01:31:27.305Z,9.20
2023-05-19T01:33:54.544Z,9.30
2023-05-19T01:36:23.169Z,9.20
2023-05-19T01:38:56.986Z,9.20
2023-05-19T01:41:24.035Z,9.20
2023-05-19T01:43:51.147Z,9.20
2023-05-19T01:46:18.374Z,9.30
2023-05-19T01:48:48.389Z,9.20
2023-05-19T01:51:15.464Z,9.20
2023-05-19T01:53:42.896Z,9.30
2023-05-19T01:56:10.062Z,9.20
2023-05-19T01:58:48.535Z,9.20
2023-05-19T02:01:24.491Z,9.20
2023-05-19T02:04:09.872Z,9.10
2023-05-19T02:07:10.666Z,9.20
2023-05-19T02:10:02.925Z,9.20
2023-05-19T02:12:36.134Z,9.10
2023-05-19T02:15:09.563Z,9.00
2023-05-19T02:17:40.642Z,9.00
2023-05-19T02:20:09.545Z,8.90
2023-05-19T02:22:36.827Z,8.80
2023-05-19T02:25:03.931Z,8.90
2023-05-19T02:27:31.144Z,8.90
2023-05-19T02:29:58.244Z,8.80
2023-05-19T02:32:25.378Z,8.80
2023-05-19T02:34:53.591Z,8.80
2023-05-19T02:37:23.931Z,8.80
2023-05-19T02:39:51.359Z,8.90
2023-05-19T02:42:18.523Z,8.90
2023-05-19T02:44:45.618Z,8.80
2023-05-19T02:47:13.409Z,8.90
2023-05-19T02:49:40.782Z,8.90
2023-05-19T02:52:07.831Z,8.90
2023-05-19T02:54:34.881Z,8.90
2023-05-19T02:57:02.130Z,8.90
2023-05-19T02:59:29.207Z,8.90
2023-05-19T03:02:00.566Z,8.90
2023-05-19T03:04:28.216Z,8.90
2023-05-19T03:06:55.464Z,8.90
2023-05-19T03:09:22.555Z,8.90
2023-05-19T03:11:49.603Z,8.90
2023-05-19T03:14:16.710Z,8.90
2023-05-19T03:16:43.989Z,8.90
2023-05-19T03:19:11.443Z,8.90
2023-05-19T03:21:38.610Z,8.90
2023-05-19T03:24:05.829Z,8.90
2023-05-19T03:26:32.933Z,9.00
2023-05-19T03:29:00.074Z,8.90
2023-05-19T03:31:27.149Z,8.80
2023-05-19T03:33:54.190Z,8.80
2023-05-19T03:36:22.245Z,8.70
2023-05-19T03:38:49.401Z,8.70
2023-05-19T03:41:16.544Z,8.60
2023-05-19T03:43:43.638Z,8.60
2023-05-19T05:02:11.079Z,9.00
2023-05-19T05:04:40.923Z,9.00
2023-05-19T05:07:08.060Z,9.10
2023-05-19T05:09:35.318Z,9.10
2023-05-19T05:12:03.001Z,9.00
2023-05-19T05:14:30.233Z,9.10
2023-05-19T05:16:57.756Z,9.20
2023-05-19T05:19:24.981Z,9.20
2023-05-19T05:21:52.436Z,9.20
2023-05-19T05:24:19.703Z,9.30
2023-05-19T05:26:47.056Z,9.30
2023-05-19T05:29:14.176Z,9.30
2023-05-19T05:31:41.212Z,9.40
2023-05-19T05:34:08.276Z,9.40
2023-05-19T05:36:35.371Z,9.40
2023-05-19T05:39:02.736Z,9.40
2023-05-19T05:41:35.395Z,9.40
2023-05-19T05:44:02.795Z,9.40
2023-05-19T05:46:30.166Z,9.50
2023-05-19T05:48:57.493Z,9.60
2023-05-19T05:51:24.871Z,9.60
2023-05-19T05:53:53.610Z,9.70
2023-05-19T05:56:21.822Z,9.80
2023-05-19T05:58:49.735Z,9.80
2023-05-19T06:01:17.973Z,9.90
2023-05-19T06:03:45.259Z,10.00
2023-05-19T06:06:13.185Z,10.10
2023-05-19T06:08:40.246Z,10.20
2023-05-19T06:11:09.391Z,10.40
2023-05-19T06:13:36.773Z,10.50
2023-05-19T06:16:03.968Z,10.80
2023-05-19T06:18:31.188Z,11.20
2023-05-19T06:20:58.464Z,11.60
2023-05-19T06:23:27.011Z,11.90
2023-05-19T06:25:54.057Z,12.40
2023-05-19T06:28:21.186Z,12.50
2023-05-19T06:30:48.221Z,12.90
2023-05-19T06:33:15.320Z,12.90
2023-05-19T06:35:42.533Z,13.10
2023-05-19T06:38:09.654Z,13.40
2023-05-19T06:40:37.183Z,13.70
2023-05-19T06:43:05.090Z,13.90
2023-05-19T06:45:32.232Z,14.20
2023-05-19T06:47:59.350Z,14.40
2023-05-19T06:50:26.515Z,14.30
2023-05-19T06:52:53.642Z,14.00
2023-05-19T06:55:20.775Z,14.10
2023-05-19T06:57:47.863Z,14.20
2023-05-19T07:00:17.955Z,14.30
2023-05-19T07:02:46.470Z,14.10
2023-05-19T07:05:14.033Z,14.20
2023-05-19T07:07:42.078Z,14.30
2023-05-19T07:10:10.264Z,14.30
2023-05-19T07:12:37.353Z,14.50
2023-05-19T07:15:05.228Z,14.30
2023-05-19T07:17:32.543Z,15.00
2023-05-19T07:20:01.083Z,15.10
2023-05-19T07:22:28.332Z,15.30
2023-05-19T07:24:57.258Z,15.20
2023-05-19T07:27:24.450Z,15.30
2023-05-19T07:29:51.631Z,15.00
2023-05-19T07:32:18.968Z,14.80
2023-05-19T07:34:46.175Z,14.40
2023-05-19T07:37:13.670Z,14.70
2023-05-19T07:39:40.993Z,14.70
2023-05-19T07:42:08.171Z,14.60
2023-05-19T07:44:35.363Z,14.50
2023-05-19T07:47:02.558Z,14.40
2023-05-19T07:49:29.786Z,14.20
2023-05-19T07:51:57.377Z,14.40
2023-05-19T07:54:24.503Z,14.20
2023-05-19T07:56:51.936Z,14.60
2023-05-19T07:59:19.286Z,14.40
2023-05-19T08:01:46.667Z,14.50
2023-05-19T08:04:14.227Z,14.40
2023-05-19T08:06:42.951Z,14.50
2023-05-19T08:09:10.592Z,14.60
2023-05-19T08:11:37.858Z,15.00
2023-05-19T08:14:05.033Z,15.20
2023-05-19T08:16:32.402Z,15.40
2023-05-19T08:19:02.763Z,15.30
2023-05-19T08:21:30.031Z,15.50
2023-05-19T08:23:57.760Z,15.50
2023-05-19T08:26:24.932Z,15.60
2023-05-19T08:28:52.105Z,15.60
2023-05-19T08:31:19.352Z,15.60
2023-05-19T08:33:46.593Z,15.60
2023-05-19T08:36:14.128Z,15.70
2023-05-19T08:38:41.562Z,15.70
2023-05-19T08:41:08.991Z,15.60
2023-05-19T08:43:36.221Z,15.80
2023-05-19T08:46:05.083Z,15.70
2023-05-19T08:48:33.086Z,15.80
2023-05-19T08:51:23.971Z,15.80
2023-05-19T08:53:52.113Z,15.80
2023-05-19T08:56:24.172Z,15.80
2023-05-19T08:58:52.157Z,15.50
2023-05-19T09:01:20.594Z,15.50
2023-05-19T09:03:50.236Z,15.60
2023-05-19T09:06:17.808Z,15.40
2023-05-19T09:08:45.237Z,15.40
2023-05-19T09:11:12.730Z,15.60
2023-05-19T09:13:39.993Z,15.90
2023-05-19T09:16:08.583Z,16.10
2023-05-19T09:18:40.176Z,16.10
2023-05-19T09:21:07.667Z,16.00
2023-05-19T09:23:35.203Z,15.80
2023-05-19T09:26:07.971Z,15.70
2023-05-19T09:28:36.809Z,15.60
2023-05-19T09:31:11.513Z,15.80
2023-05-19T09:33:46.071Z,16.10
2023-05-19T09:36:14.144Z,16.20
2023-05-19T09:38:41.670Z,16.30
2023-05-19T09:41:09.690Z,16.40
2023-05-19T09:43:37.032Z,16.50
2023-05-19T09:46:10.674Z,16.30
2023-05-19T09:48:39.679Z,16.30
2023-05-19T09:51:11.219Z,16.40
2023-05-19T09:53:39.373Z,16.50
2023-05-19T09:56:07.497Z,16.40
2023-05-19T09:58:35.665Z,16.50
2023-05-19T10:01:04.809Z,16.70
2023-05-19T10:03:35.521Z,16.60
2023-05-19T10:06:07.637Z,16.90
2023-05-19T10:08:36.108Z,16.90
2023-05-19T10:11:03.918Z,17.00
2023-05-19T10:13:31.444Z,17.10
2023-05-19T10:15:59.918Z,17.20
2023-05-19T10:18:29.954Z,17.40
2023-05-19T10:20:58.351Z,17.40
2023-05-19T10:23:26.316Z,17.50
2023-05-19T10:25:57.048Z,17.50
2023-05-19T10:28:28.407Z,17.50
2023-05-19T10:30:59.176Z,17.30
2023-05-19T10:34:19.590Z,17.40
2023-05-19T10:37:13.089Z,17.30
2023-05-19T10:39:42.992Z,17.60
2023-05-19T10:42:17.569Z,17.80
2023-05-19T10:45:17.292Z,17.70
2023-05-19T10:47:47.888Z,17.80
2023-05-19T10:50:15.186Z,17.80
2023-05-19T10:52:42.632Z,17.60
2023-05-19T10:55:17.845Z,17.50
2023-05-19T10:57:57.055Z,17.50
2023-05-19T11:00:29.177Z,17.60
2023-05-19T11:03:16.751Z,17.70
2023-05-19T11:05:50.246Z,17.80
2023-05-19T11:08:18.216Z,18.00
2023-05-19T11:10:46.488Z,18.10
2023-05-19T11:13:22.593Z,18.10
2023-05-19T11:15:50.370Z,18.10
2023-05-19T11:18:17.522Z,18.10
2023-05-19T11:20:44.859Z,18.00
2023-05-19T11:23:18.184Z,18.10
2023-05-19T11:25:54.063Z,18.00
2023-05-19T11:28:26.095Z,18.10
2023-05-19T11:30:54.748Z,18.00
2023-05-19T11:33:21.909Z,17.80
2023-05-19T11:35:50.589Z,17.80
2023-05-19T11:38:18.892Z,18.10
2023-05-19T11:40:47.908Z,18.10
2023-05-19T11:43:14.974Z,18.10
2023-05-19T11:45:42.604Z,18.10
2023-05-19T11:48:13.194Z,17.90
2023-05-19T11:50:44.286Z,17.90
2023-05-19T11:53:13.899Z,18.20
2023-05-19T11:55:48.094Z,18.30
2023-05-19T11:58:15.988Z,18.30
2023-05-19T12:00:46.234Z,18.30
2023-05-19T12:03:17.729Z,18.10
2023-05-19T12:05:46.729Z,18.10
2023-05-19T12:08:14.589Z,18.20
2023-05-19T12:10:41.902Z,18.40
2023-05-19T12:13:10.148Z,18.40
2023-05-19T12:15:38.131Z,18.30
2023-05-19T12:18:05.845Z,18.20
2023-05-19T12:20:35.781Z,18.50
2023-05-19T12:23:03.798Z,18.60
2023-05-19T12:25:32.258Z,18.70
2023-05-19T12:28:03.195Z,18.70
2023-05-19T12:30:31.802Z,18.90
2023-05-19T12:32:59.465Z,18.60
2023-05-19T12:35:33.605Z,18.60
2023-05-19T12:38:07.883Z,18.30
2023-05-19T12:40:36.789Z,18.20
2023-05-19T12:43:04.373Z,18.40
2023-05-19T12:45:36.294Z,18.50
2023-05-19T12:48:05.806Z,18.60
2023-05-19T12:50:34.716Z,18.70
2023-05-19T12:53:02.311Z,18.60
2023-05-19T12:55:30.226Z,18.70
2023-05-19T12:57:58.711Z,18.70
2023-05-19T13:00:29.222Z,18.70
2023-05-19T13:03:00.844Z,18.60
2023-05-19T13:05:28.787Z,18.80
2023-05-19T13:08:13.274Z,18.90
2023-05-19T13:10:43.238Z,18.90
2023-05-19T13:13:11.380Z,18.90
2023-05-19T13:15:44.712Z,19.20
2023-05-19T13:18:13.976Z,19.30
2023-05-19T13:20:44.630Z,19.30
2023-05-19T13:23:12.733Z,19.10
2023-05-19T13:25:41.570Z,19.00
2023-05-19T13:28:09.253Z,19.10
2023-05-19T13:30:39.565Z,19.10
2023-05-19T13:33:07.085Z,19.10
2023-05-19T13:35:37.768Z,19.30
2023-05-19T13:38:12.592Z,19.40
2023-05-19T13:40:43.135Z,19.40
2023-05-19T13:43:10.280Z,19.20
2023-05-19T13:45:37.682Z,19.10
2023-05-19T13:48:07.551Z,19.20
2023-05-19T13:50:35.025Z,19.30
2023-05-19T13:53:02.327Z,19.30
2023-05-19T13:55:29.601Z,19.40
2023-05-19T13:57:56.949Z,19.20
2023-05-19T14:00:24.295Z,19.10
2023-05-19T14:02:51.480Z,19.00
2023-05-19T14:05:19.222Z,19.20
2023-05-19T14:07:46.515Z,19.40
2023-05-19T14:10:16.401Z,19.40
2023-05-19T14:13:07.998Z,19.50
2023-05-19T14:15:34.583Z,19.20
2023-05-19T14:18:02.286Z,19.10
2023-05-19T14:20:31.667Z,19.40
2023-05-19T14:22:59.051Z,19.20
2023-05-19T14:25:26.172Z,19.20
2023-05-19T14:27:53.508Z,19.30
2023-05-19T14:30:20.675Z,19.70
2023-05-19T14:32:47.911Z,19.70
2023-05-19T14:35:15.227Z,19.80
2023-05-19T14:37:44.836Z,19.80
2023-05-19T14:40:12.656Z,20.00
2023-05-19T14:42:39.834Z,20.30
2023-05-19T14:45:07.770Z,20.30
2023-05-19T14:47:35.028Z,20.40
2023-05-19T14:50:02.571Z,20.10
2023-05-19T14:52:29.792Z,19.90
2023-05-19T14:54:57.289Z,19.80
2023-05-19T14:57:24.632Z,19.90
2023-05-19T14:59:51.781Z,20.10
2023-05-19T15:02:18.971Z,20.10
2023-05-19T15:04:46.174Z,20.10
2023-05-19T15:07:14.054Z,20.00
2023-05-19T15:09:41.478Z,20.10
2023-05-19T15:12:08.656Z,19.90
2023-05-19T15:14:36.061Z,19.90
2023-05-19T15:17:03.359Z,19.80
2023-05-19T15:19:30.779Z,19.50
2023-05-19T15:21:58.028Z,19.20
2023-05-19T15:24:25.197Z,19.30
2023-05-19T15:26:52.587Z,19.30
2023-05-19T15:29:19.775Z,19.40
2023-05-19T15:31:50.032Z,19.60
2023-05-19T15:34:17.890Z,19.60
2023-05-19T15:36:45.167Z,19.60
2023-05-19T15:39:12.652Z,19.90
2023-05-19T15:41:40.052Z,20.00
2023-05-19T15:44:08.167Z,20.00
2023-05-19T15:46:37.825Z,20.10
2023-05-19T15:49:05.001Z,19.90
2023-05-19T15:51:32.203Z,20.00
2023-05-19T15:53:59.521Z,19.90
2023-05-19T15:56:26.869Z,19.40
2023-05-19T15:58:54.071Z,19.40
2023-05-19T16:01:21.891Z,19.30
2023-05-19T16:03:49.191Z,19.30
2023-05-19T16:06:16.446Z,19.40
2023-05-19T16:08:46.638Z,19.40
2023-05-19T16:11:16.506Z,19.60
2023-05-19T16:13:44.066Z,19.60
2023-05-19T16:16:14.685Z,19.40
2023-05-19T16:18:43.211Z,19.50
2023-05-19T16:21:10.876Z,19.50
2023-05-19T16:23:38.026Z,19.20
2023-05-19T16:26:05.634Z,19.00
2023-05-19T16:28:32.863Z,19.00
2023-05-19T16:31:00.577Z,18.90
2023-05-19T16:33:28.468Z,18.90
2023-05-19T16:35:56.287Z,18.90
2023-05-19T16:38:23.488Z,18.90
2023-05-19T16:40:50.634Z,19.10
2023-05-19T16:43:17.808Z,19.10
2023-05-19T16:45:44.990Z,19.10
2023-05-19T16:48:14.605Z,19.20
2023-05-19T16:50:41.785Z,19.30
2023-05-19T16:53:08.982Z,19.20
2023-05-19T16:55:36.167Z,19.10
2023-05-19T16:58:03.356Z,19.10
2023-05-19T17:00:30.631Z,19.00
2023-05-19T17:02:57.865Z,19.00
2023-05-19T17:05:25.209Z,19.00
2023-05-19T17:07:52.471Z,18.90
2023-05-19T17:10:19.616Z,18.70
2023-05-19T17:12:46.816Z,18.70
2023-05-19T17:15:15.651Z,18.70
2023-05-19T17:17:42.909Z,18.70
2023-05-19T17:20:11.271Z,18.80
2023-05-19T17:22:38.401Z,18.80
2023-05-19T17:25:07.226Z,18.80
2023-05-19T17:27:34.324Z,18.80
2023-05-19T17:30:01.444Z,18.80
2023-05-19T17:32:30.451Z,18.90
2023-05-19T17:34:58.783Z,18.80
2023-05-19T17:37:26.316Z,18.80
2023-05-19T17:39:53.519Z,18.70
2023-05-19T17:42:20.809Z,18.70
2023-05-19T17:44:47.932Z,18.70
2023-05-19T17:47:15.124Z,18.60
2023-05-19T17:49:42.555Z,18.40
2023-05-19T17:52:10.881Z,18.40
2023-05-19T17:54:38.375Z,18.30
2023-05-19T17:57:14.597Z,18.20
2023-05-19T17:59:41.701Z,18.10
2023-05-19T18:02:10.013Z,18.10
2023-05-19T18:04:37.398Z,18.20
2023-05-19T18:07:05.316Z,18.10
2023-05-19T18:09:32.461Z,18.10
2023-05-19T18:12:02.436Z,18.10
2023-05-19T18:14:29.775Z,18.00
2023-05-19T18:16:56.927Z,18.00
2023-05-19T18:19:24.113Z,18.10
2023-05-19T18:21:51.696Z,18.10
2023-05-19T18:24:18.742Z,18.10
2023-05-19T18:26:45.828Z,18.10
2023-05-19T18:29:14.686Z,18.00
2023-05-19T18:31:42.372Z,17.90
2023-05-19T18:34:09.634Z,17.90
2023-05-19T18:36:39.686Z,17.80
2023-05-19T18:39:07.347Z,17.70
2023-05-19T18:41:34.524Z,17.40
2023-05-19T18:44:01.618Z,17.30
2023-05-19T18:46:30.057Z,17.20
2023-05-19T18:48:57.325Z,17.20
2023-05-19T18:51:24.491Z,17.20
2023-05-19T18:53:51.717Z,17.00
2023-05-19T18:56:26.443Z,17.00
2023-05-19T18:58:54.888Z,16.90
2023-05-19T19:01:22.111Z,16.80
2023-05-19T19:03:49.707Z,16.70
2023-05-19T19:06:17.568Z,16.70
2023-05-19T19:08:45.306Z,16.70
2023-05-19T19:11:12.870Z,16.60
2023-05-19T19:13:40.121Z,16.70
2023-05-19T19:16:07.676Z,16.40
2023-05-19T19:18:36.820Z,16.30
2023-05-19T19:21:06.058Z,16.30
2023-05-19T19:23:33.308Z,16.20
2023-05-19T19:26:00.640Z,16.30
2023-05-19T19:28:27.862Z,16.20
2023-05-19T19:30:54.904Z,16.20
2023-05-19T19:33:22.129Z,16.20
2023-05-19T19:35:49.257Z,16.10
2023-05-19T19:38:16.344Z,16.10
2023-05-19T19:40:43.890Z,16.00
2023-05-19T19:43:11.426Z,15.90
2023-05-19T19:45:41.851Z,15.70
2023-05-19T19:48:09.092Z,15.70
2023-05-19T19:50:36.937Z,15.60
2023-05-19T19:53:04.038Z,15.70
2023-05-19T19:55:31.164Z,15.60
2023-05-19T19:57:58.295Z,15.50
2023-05-19T20:00:25.656Z,15.60
2023-05-19T20:03:04.405Z,15.50
2023-05-19T20:05:32.830Z,15.60
2023-05-19T20:07:59.956Z,15.50
2023-05-19T20:10:27.046Z,15.40
2023-05-19T20:12:54.162Z,15.30
2023-05-19T20:15:21.321Z,15.30
2023-05-19T20:17:48.589Z,15.40
2023-05-19T20:20:15.738Z,15.20
2023-05-19T20:22:45.686Z,15.20
2023-05-19T20:25:13.167Z,15.30
2023-05-19T20:27:40.330Z,15.20
2023-05-19T20:30:07.924Z,15.20
2023-05-19T20:32:37.226Z,15.10
2023-05-19T20:35:04.575Z,15.10
2023-05-19T20:37:31.683Z,15.10
2023-05-19T20:39:58.820Z,15.00
2023-05-19T20:42:25.901Z,15.00
2023-05-19T20:44:52.980Z,14.90
2023-05-19T20:47:21.153Z,14.70
2023-05-19T20:49:51.449Z,14.70
2023-05-19T20:52:18.776Z,14.70
2023-05-19T20:54:46.616Z,14.70
2023-05-19T20:57:16.493Z,14.70
2023-05-19T20:59:46.488Z,14.60
2023-05-19T21:02:16.322Z,14.60
2023-05-19T21:04:43.999Z,14.50
2023-05-19T21:07:11.294Z,14.50
2023-05-19T21:09:38.379Z,14.60
2023-05-19T21:12:05.731Z,14.50
2023-05-19T21:14:32.774Z,14.50
2023-05-19T21:16:59.964Z,14.40
2023-05-19T21:19:27.072Z,14.30
2023-05-19T21:21:54.214Z,14.40
2023-05-19T21:24:21.366Z,14.20
2023-05-19T21:26:49.452Z,14.20
2023-05-19T21:29:16.536Z,14.20
2023-05-19T21:31:46.465Z,14.00
2023-05-19T21:34:16.292Z,14.10
2023-05-19T21:36:43.716Z,13.90
2023-05-19T21:39:14.228Z,13.90
2023-05-19T21:41:41.304Z,14.00
2023-05-19T21:44:08.352Z,13.90
2023-05-19T21:46:35.780Z,13.90
2023-05-19T21:49:02.874Z,13.90
2023-05-19T21:51:29.968Z,13.80
2023-05-19T21:53:57.020Z,13.80
2023-05-19T21:56:24.091Z,13.80
2023-05-19T21:58:51.172Z,13.80
2023-05-19T22:01:18.323Z,13.70
2023-05-19T22:03:45.664Z,13.70
2023-05-19T22:06:12.902Z,13.70
2023-05-19T22:08:41.332Z,13.60
2023-05-19T22:11:09.321Z,13.60
2023-05-19T22:13:41.236Z,13.60
2023-05-19T22:16:08.467Z,13.60
2023-05-19T22:18:35.639Z,13.50
2023-05-19T22:21:02.738Z,13.30
2023-05-19T22:23:30.080Z,13.40
2023-05-19T22:25:57.126Z,13.50
2023-05-19T22:28:24.181Z,13.50
2023-05-19T22:30:51.241Z,13.50
2023-05-19T22:33:18.375Z,13.40
2023-05-19T22:35:45.406Z,13.40
2023-05-19T22:38:14.984Z,13.20
2023-05-19T22:40:42.098Z,13.20
2023-05-19T22:43:11.779Z,13.20
2023-05-19T22:45:38.950Z,13.20
2023-05-19T22:48:06.833Z,13.20
2023-05-19T22:50:33.973Z,13.20
2023-05-19T22:53:01.036Z,13.20
2023-05-19T22:55:28.068Z,13.20
2023-05-19T22:57:55.176Z,13.20
2023-05-19T23:00:22.321Z,13.10
2023-05-19T23:02:49.519Z,13.00
2023-05-19T23:05:16.970Z,13.00
2023-05-19T23:07:47.037Z,13.00
2023-05-19T23:10:14.206Z,12.90
2023-05-19T23:12:41.334Z,12.80
2023-05-19T23:15:09.860Z,12.80
2023-05-19T23:17:40.021Z,12.70
2023-05-19T23:20:07.610Z,12.70
2023-05-19T23:22:34.769Z,12.80
2023-05-19T23:25:05.925Z,12.70
2023-05-19T23:27:33.455Z,12.60
2023-05-19T23:30:00.584Z,12.70
2023-05-19T23:32:27.803Z,12.70
2023-05-19T23:34:54.897Z,12.50
2023-05-19T23:37:22.025Z,12.60
2023-05-19T23:39:49.067Z,12.60
2023-05-19T23:42:16.292Z,12.50
2023-05-19T23:44:43.932Z,12.50
2023-05-19T23:47:11.236Z,12.50
2023-05-19T23:49:38.344Z,12.50
2023-05-19T23:52:05.730Z,12.50
2023-05-19T23:54:32.775Z,12.50
2023-05-19T23:57:01.537Z,12.40
2023-05-19T23:59:28.602Z,12.30
